Time;durP1;ratioP1;P1;durP2;ratioP2;P2;SDS_P1;SDS_P2;PMS_P1;PMS_P2;Temp;Humidity;BMP_temperature;BMP_pressure;BME280_temperature;BME280_humidity;BME280_pressure;Samples;Min_cycle;Max_cycle;Signal;HPM_P1;HPM_P2
2024/01/25 00:00:07;;;;;;;6.97;2.27;;;;;;;8.36;84.47;101149.72;4999419;28;20241;-72
2024/01/25 00:02:35;;;;;;;12.07;2.53;;;;;;;8.37;83.38;101155.75;4993932;28;20584;-71
2024/01/25 00:05:01;;;;;;;11.43;2.07;;;;;;;8.37;82.83;101151.28;4993736;28;20597;-72
2024/01/25 00:07:27;;;;;;;9.77;2.57;;;;;;;8.36;83.96;101155.00;5014696;28;20687;-71
2024/01/25 00:09:54;;;;;;;8.77;2.23;;;;;;;8.35;84.60;101158.69;4998316;28;20230;-71
2024/01/25 00:12:20;;;;;;;12.93;2.90;;;;;;;8.34;83.81;101165.00;4995672;28;20204;-71
2024/01/25 00:14:46;;;;;;;7.80;2.57;;;;;;;8.33;83.19;101150.31;4997297;28;20211;-72
2024/01/25 00:17:13;;;;;;;8.13;2.13;;;;;;;8.32;83.46;101154.03;4997621;28;20332;-71
2024/01/25 00:19:41;;;;;;;8.60;1.80;;;;;;;8.33;83.63;101150.31;4999458;28;20212;-72
2024/01/25 00:22:07;;;;;;;14.40;2.90;;;;;;;8.31;82.43;101160.34;4997924;28;20208;-71
2024/01/25 00:24:34;;;;;;;12.00;2.93;;;;;;;8.30;88.05;101153.53;5000119;28;20234;-72
2024/01/25 00:27:00;;;;;;;10.50;2.67;;;;;;;8.31;88.78;101164.84;4996797;28;20216;-72
2024/01/25 00:29:26;;;;;;;11.53;2.30;;;;;;;8.28;85.25;101162.81;5004303;28;20676;-71
2024/01/25 00:31:53;;;;;;;14.30;3.70;;;;;;;8.25;83.48;101179.97;5001691;28;20221;-72
2024/01/25 00:34:20;;;;;;;12.17;3.20;;;;;;;8.22;84.30;101188.44;4999332;28;20222;-74
2024/01/25 00:36:48;;;;;;;11.27;2.80;;;;;;;8.21;84.47;101183.47;5000580;28;20686;-74
2024/01/25 00:39:15;;;;;;;9.30;2.90;;;;;;;8.20;85.13;101180.06;4996612;28;20211;-74
2024/01/25 00:41:44;;;;;;;13.73;3.30;;;;;;;8.17;85.22;101185.88;5001948;28;20289;-72
2024/01/25 00:44:11;;;;;;;9.60;2.73;;;;;;;8.19;84.93;101188.97;4998888;28;20215;-72
2024/01/25 00:46:38;;;;;;;13.53;3.33;;;;;;;8.16;84.42;101184.31;4997845;28;20666;-71
2024/01/25 00:49:05;;;;;;;11.53;3.50;;;;;;;8.15;85.53;101182.78;4997373;28;20905;-72
2024/01/25 00:51:32;;;;;;;10.33;2.90;;;;;;;8.14;88.52;101175.94;5000753;28;20242;-72
2024/01/25 00:54:00;;;;;;;11.80;4.60;;;;;;;8.14;84.66;101183.06;5001358;28;20744;-72
2024/01/25 00:56:27;;;;;;;12.33;3.10;;;;;;;8.12;85.88;101183.34;4993505;28;20236;-71
2024/01/25 00:58:54;;;;;;;10.43;2.97;;;;;;;8.10;85.84;101201.28;5001818;28;20269;-72
2024/01/25 01:01:22;;;;;;;10.07;3.30;;;;;;;8.11;87.57;101184.44;4999680;28;20247;-71
2024/01/25 01:03:52;;;;;;;7.60;3.20;;;;;;;8.09;85.11;101191.84;4996816;28;20214;-74
2024/01/25 01:06:19;;;;;;;14.47;3.37;;;;;;;8.11;86.04;101184.44;4998955;28;20583;-74
2024/01/25 01:08:46;;;;;;;16.73;3.33;;;;;;;8.10;90.45;101196.03;5002832;28;20277;-74
2024/01/25 01:11:14;;;;;;;11.37;3.13;;;;;;;8.10;84.53;101197.84;5011314;28;20202;-74
2024/01/25 01:13:40;;;;;;;15.67;3.53;;;;;;;8.10;85.84;101179.44;5003087;28;20217;-74
2024/01/25 01:16:07;;;;;;;11.17;3.27;;;;;;;8.10;87.95;101184.72;5004326;28;20239;-74
2024/01/25 01:18:33;;;;;;;13.00;3.67;;;;;;;8.09;88.36;101207.63;4997303;28;20739;-74
2024/01/25 01:20:59;;;;;;;15.10;4.23;;;;;;;8.08;87.05;101187.63;5001181;28;20219;-74
2024/01/25 01:23:26;;;;;;;10.17;3.63;;;;;;;8.07;86.02;101191.34;5002026;28;20206;-74
2024/01/25 01:25:52;;;;;;;8.37;3.37;;;;;;;8.05;86.35;101190.06;4998962;28;20232;-74
2024/01/25 01:28:20;;;;;;;14.77;3.90;;;;;;;8.04;85.76;101178.00;5014214;28;20578;-74
2024/01/25 01:30:46;;;;;;;14.27;3.83;;;;;;;8.04;86.00;101184.06;5003246;28;20688;-74
2024/01/25 01:33:13;;;;;;;14.13;3.10;;;;;;;8.04;86.42;101183.25;5002201;28;20215;-74
2024/01/25 01:35:39;;;;;;;12.40;2.60;;;;;;;8.04;86.50;101183.25;4997971;28;20285;-74
2024/01/25 01:38:06;;;;;;;13.10;3.17;;;;;;;8.05;86.08;101192.69;4995287;28;20295;-73
2024/01/25 01:40:32;;;;;;;12.17;2.80;;;;;;;8.04;86.93;101191.16;5003150;28;20208;-74
2024/01/25 01:43:02;;;;;;;10.53;3.80;;;;;;;8.02;86.68;101203.81;5001336;28;20571;-74
2024/01/25 01:45:30;;;;;;;10.17;3.17;;;;;;;8.01;87.66;101199.63;5003482;28;20233;-74
2024/01/25 01:47:57;;;;;;;10.20;2.73;;;;;;;8.01;87.84;101189.09;4998079;28;20663;-74
2024/01/25 01:50:23;;;;;;;12.10;3.17;;;;;;;8.01;87.80;101203.03;5005559;28;20202;-74
2024/01/25 01:52:50;;;;;;;11.70;3.23;;;;;;;8.01;86.26;101189.09;5002889;28;20188;-74
2024/01/25 01:55:17;;;;;;;16.30;2.87;;;;;;;8.00;86.41;101182.28;5000858;28;20230;-74
2024/01/25 01:57:45;;;;;;;11.40;3.87;;;;;;;8.00;86.81;101190.97;5002350;28;20250;-74
2024/01/25 02:00:15;;;;;;;18.27;3.47;;;;;;;8.00;86.34;101187.53;5000486;28;20606;-74
2024/01/25 02:02:43;;;;;;;11.33;2.90;;;;;;;7.99;88.05;101178.88;4999248;28;20203;-74
2024/01/25 02:05:10;;;;;;;8.73;2.33;;;;;;;7.98;88.09;101160.78;4999915;28;20564;-74
2024/01/25 02:07:37;;;;;;;9.07;3.03;;;;;;;7.97;86.29;101178.38;4999723;28;20240;-74
2024/01/25 02:10:05;;;;;;;14.33;3.03;;;;;;;7.96;88.30;101179.47;4994651;28;20205;-74
2024/01/25 02:12:31;;;;;;;11.97;3.07;;;;;;;7.97;89.32;101183.66;4997915;28;20211;-74
2024/01/25 02:14:58;;;;;;;9.00;2.90;;;;;;;7.95;87.18;101188.44;5001717;28;20302;-74
2024/01/25 02:17:24;;;;;;;12.73;2.93;;;;;;;7.93;88.61;101192.41;5001363;28;20230;-74
2024/01/25 02:19:52;;;;;;;12.90;2.90;;;;;;;7.94;88.73;101189.50;4998300;28;20200;-74
2024/01/25 02:22:20;;;;;;;9.87;1.90;;;;;;;7.92;87.43;101188.25;4998305;28;20196;-74
2024/01/25 02:24:46;;;;;;;10.30;2.30;;;;;;;7.93;87.69;101187.94;4998010;28;20255;-74
2024/01/25 02:27:12;;;;;;;11.90;2.63;;;;;;;7.92;85.76;101185.63;5000516;28;20201;-74
2024/01/25 02:29:38;;;;;;;16.47;3.63;;;;;;;7.91;87.72;101199.81;4998518;28;20204;-74
2024/01/25 02:32:05;;;;;;;15.30;2.57;;;;;;;7.92;87.27;101191.63;5000656;28;20203;-74
2024/01/25 02:34:32;;;;;;;7.93;2.33;;;;;;;7.90;88.13;101217.44;4998615;28;20202;-74
2024/01/25 02:36:58;;;;;;;17.77;2.40;;;;;;;7.92;86.46;101188.25;4999313;28;20747;-74
2024/01/25 02:39:26;;;;;;;12.60;3.40;;;;;;;7.92;88.88;101206.66;4999733;28;20836;-74
2024/01/25 02:41:52;;;;;;;13.43;2.30;;;;;;;7.90;86.85;101193.78;5001691;28;20239;-74
2024/01/25 02:44:18;;;;;;;9.10;2.13;;;;;;;7.92;88.83;101204.78;4997833;28;20218;-74
2024/01/25 02:46:46;;;;;;;14.03;2.53;;;;;;;7.92;88.41;101217.16;5000470;28;20210;-74
2024/01/25 02:49:13;;;;;;;12.37;2.37;;;;;;;7.94;87.26;101217.63;4996917;28;20291;-71
2024/01/25 02:51:39;;;;;;;10.70;2.93;;;;;;;7.95;87.35;101214.72;5002632;28;20710;-71
2024/01/25 02:54:05;;;;;;;12.43;2.93;;;;;;;7.96;87.58;101220.75;4999809;28;20859;-72
2024/01/25 02:56:35;;;;;;;12.10;2.80;;;;;;;7.97;89.77;101224.97;4996171;28;20645;-71
2024/01/25 02:59:01;;;;;;;9.17;2.10;;;;;;;7.96;87.44;101228.63;4996300;28;20202;-71
2024/01/25 03:01:28;;;;;;;8.07;1.97;;;;;;;7.96;87.47;101224.16;4997944;28;20824;-72
2024/01/25 03:03:54;;;;;;;10.97;2.23;;;;;;;7.95;88.02;101224.44;5001690;28;20238;-71
2024/01/25 03:06:21;;;;;;;10.50;2.57;;;;;;;7.92;86.88;101217.16;4998109;28;20216;-72
2024/01/25 03:08:47;;;;;;;8.90;1.90;;;;;;;7.90;88.35;101209.56;5003736;28;20217;-71
2024/01/25 03:11:13;;;;;;;8.37;2.63;;;;;;;7.90;87.86;101209.56;5000830;28;20203;-71
2024/01/25 03:13:41;;;;;;;7.37;2.13;;;;;;;7.90;88.04;101217.44;4998268;28;20202;-71
2024/01/25 03:16:07;;;;;;;7.17;2.30;;;;;;;7.87;88.26;101230.41;4997718;28;20222;-74
2024/01/25 03:18:34;;;;;;;10.30;2.03;;;;;;;7.87;85.66;101225.16;4997193;28;20205;-74
2024/01/25 03:21:00;;;;;;;12.00;1.90;;;;;;;7.90;86.33;101222.72;4999513;28;20289;-75
2024/01/25 03:23:27;;;;;;;12.70;2.37;;;;;;;7.90;85.84;101225.34;4999616;28;20203;-74
2024/01/25 03:25:53;;;;;;;12.00;2.10;;;;;;;7.90;87.76;101232.44;5000664;28;20229;-74
2024/01/25 03:28:19;;;;;;;12.30;2.30;;;;;;;7.90;85.95;101230.59;4996210;28;20570;-74
2024/01/25 03:30:47;;;;;;;8.93;2.50;;;;;;;7.89;87.22;101220.38;5011869;28;20201;-74
2024/01/25 03:33:13;;;;;;;4.13;1.70;;;;;;;7.90;88.17;101248.22;5022583;28;20473;-74
2024/01/25 03:35:40;;;;;;;14.87;1.97;;;;;;;7.89;85.80;101228.25;5037947;28;20306;-74
2024/01/25 03:38:06;;;;;;;12.27;3.00;;;;;;;7.89;87.54;101241.41;5022246;28;20203;-73
2024/01/25 03:40:33;;;;;;;12.70;2.20;;;;;;;7.87;87.45;101246.94;5022392;28;20226;-75
2024/01/25 03:42:59;;;;;;;14.30;2.67;;;;;;;7.88;87.54;101234.59;5018405;28;20214;-73
2024/01/25 03:45:25;;;;;;;10.83;3.17;;;;;;;7.87;86.08;101231.16;5017488;28;20250;-73
2024/01/25 03:47:53;;;;;;;13.70;2.00;;;;;;;7.86;87.01;101231.44;5018344;28;20199;-73
2024/01/25 03:50:18;;;;;;;9.50;2.40;;;;;;;7.88;90.22;101239.84;5016314;28;20259;-73
2024/01/25 03:52:45;;;;;;;12.30;2.63;;;;;;;7.87;87.20;101238.28;5018193;28;20222;-74
2024/01/25 03:55:11;;;;;;;10.40;2.27;;;;;;;7.85;87.36;101237.78;5032448;28;20372;-73
2024/01/25 03:57:39;;;;;;;11.00;2.23;;;;;;;7.86;87.03;101241.97;5015926;28;20370;-74
2024/01/25 04:00:07;;;;;;;10.93;2.50;;;;;;;7.84;88.56;101244.91;5015089;28;20198;-74
2024/01/25 04:02:33;;;;;;;13.10;2.43;;;;;;;7.85;87.89;101253.56;5038341;28;20387;-74
2024/01/25 04:05:01;;;;;;;12.60;2.27;;;;;;;7.83;88.18;101242.56;5020773;28;20213;-74
2024/01/25 04:07:28;;;;;;;11.00;2.43;;;;;;;7.83;88.26;101247.81;5018697;28;20214;-74
2024/01/25 04:09:54;;;;;;;12.70;2.37;;;;;;;7.82;87.40;101265.44;5019575;28;20261;-74
2024/01/25 04:12:20;;;;;;;10.10;2.10;;;;;;;7.84;87.09;101252.00;4998604;28;20204;-73
2024/01/25 04:14:47;;;;;;;9.27;2.13;;;;;;;7.85;88.79;101256.97;4997793;28;20218;-74
2024/01/25 04:17:13;;;;;;;8.77;1.80;;;;;;;7.84;88.40;101273.03;5002859;28;20215;-74
2024/01/25 04:19:39;;;;;;;11.37;2.23;;;;;;;7.84;88.09;101267.78;4997866;28;20271;-74
2024/01/25 04:22:07;;;;;;;9.70;2.53;;;;;;;7.83;88.67;101264.34;4995842;28;20215;-74
2024/01/25 04:24:34;;;;;;;11.97;2.33;;;;;;;7.81;88.46;101277.03;4996325;28;20288;-74
2024/01/25 04:27:00;;;;;;;16.30;2.77;;;;;;;7.81;86.93;101271.78;5003720;28;20214;-74
2024/01/25 04:29:27;;;;;;;11.33;2.50;;;;;;;7.82;88.91;101262.03;4999576;28;20234;-74
2024/01/25 04:31:53;;;;;;;10.53;2.40;;;;;;;7.81;87.95;101256.00;5011655;28;20215;-74
2024/01/25 04:34:19;;;;;;;11.70;2.60;;;;;;;7.80;86.70;101267.59;4995982;28;20213;-74
2024/01/25 04:36:46;;;;;;;12.53;2.30;;;;;;;7.80;89.55;101278.09;5013447;28;20292;-74
2024/01/25 04:39:14;;;;;;;11.73;2.53;;;;;;;7.77;87.66;101273.41;4997061;28;20284;-74
2024/01/25 04:41:40;;;;;;;12.50;2.20;;;;;;;7.77;88.20;101276.03;4993621;28;20220;-73
2024/01/25 04:44:06;;;;;;;11.07;2.43;;;;;;;7.77;87.78;101277.91;4994586;28;20207;-71
2024/01/25 04:46:36;;;;;;;13.17;2.43;;;;;;;7.76;87.11;101271.84;4995438;28;20230;-72
2024/01/25 04:49:03;;;;;;;10.13;2.37;;;;;;;7.74;90.23;101279.25;5001262;28;20212;-73
2024/01/25 04:51:29;;;;;;;11.20;2.00;;;;;;;7.73;87.67;101282.97;4995172;28;20197;-73
2024/01/25 04:53:55;;;;;;;9.60;2.70;;;;;;;7.74;86.99;101275.84;5002694;28;20207;-72
2024/01/25 04:56:23;;;;;;;8.63;2.37;;;;;;;7.74;86.41;101273.22;4999623;28;20228;-72
2024/01/25 04:58:49;;;;;;;13.10;3.03;;;;;;;7.74;85.73;101302.13;5004214;28;20718;-72
2024/01/25 05:01:16;;;;;;;13.13;2.07;;;;;;;7.74;87.74;101274.00;5000713;28;20216;-72
2024/01/25 05:03:42;;;;;;;13.17;2.10;;;;;;;7.73;85.54;101275.09;4999277;28;20216;-72
2024/01/25 05:06:09;;;;;;;14.70;3.07;;;;;;;7.75;87.70;101277.41;5001239;28;20227;-72
2024/01/25 05:08:35;;;;;;;8.97;2.33;;;;;;;7.73;84.16;101264.56;4998286;28;20203;-72
2024/01/25 05:11:02;;;;;;;12.17;2.57;;;;;;;7.74;85.92;101255.59;4997134;28;20201;-73
2024/01/25 05:13:30;;;;;;;8.90;2.33;;;;;;;7.71;86.06;101260.66;5000964;28;20361;-73
2024/01/25 05:15:56;;;;;;;7.47;2.40;;;;;;;7.70;84.70;101264.34;5002003;28;20634;-72
2024/01/25 05:18:23;;;;;;;12.57;2.23;;;;;;;7.69;87.06;101284.59;5003513;28;20232;-73
2024/01/25 05:20:50;;;;;;;10.27;2.97;;;;;;;7.70;86.62;101266.97;5000423;28;20924;-72
2024/01/25 05:23:16;;;;;;;9.70;2.37;;;;;;;7.70;85.57;101267.75;5000429;28;20634;-72
2024/01/25 05:25:42;;;;;;;11.90;2.57;;;;;;;7.68;87.17;101259.41;4996478;28;20228;-73
2024/01/25 05:28:09;;;;;;;10.17;2.63;;;;;;;7.71;84.21;101265.94;4998225;28;20197;-72
2024/01/25 05:30:37;;;;;;;11.87;2.77;;;;;;;7.71;85.34;101268.56;4999181;28;20460;-72
2024/01/25 05:33:03;;;;;;;9.73;2.33;;;;;;;7.68;84.64;101279.63;5000977;28;20989;-73
2024/01/25 05:35:30;;;;;;;11.50;2.33;;;;;;;7.70;88.28;101298.50;4999704;28;20230;-72
2024/01/25 05:37:56;;;;;;;10.70;2.40;;;;;;;7.70;85.56;101314.28;5000714;28;20207;-73
2024/01/25 05:40:22;;;;;;;10.00;2.00;;;;;;;7.69;86.63;101307.47;4996508;28;20213;-73
2024/01/25 05:42:49;;;;;;;12.47;2.30;;;;;;;7.69;85.55;101296.97;4999961;28;20677;-73
2024/01/25 05:45:15;;;;;;;6.23;1.97;;;;;;;7.72;82.03;101315.56;5001176;28;20233;-73
2024/01/25 05:47:43;;;;;;;10.20;2.47;;;;;;;7.74;83.65;101310.03;4997547;28;20789;-73
2024/01/25 05:50:10;;;;;;;12.30;2.60;;;;;;;7.74;81.24;101315.28;4999384;28;20198;-73
2024/01/25 05:52:37;;;;;;;13.57;2.80;;;;;;;7.75;82.04;101341.28;4999876;28;20206;-73
2024/01/25 05:55:04;;;;;;;12.27;1.90;;;;;;;7.73;82.55;101324.25;5013390;28;20314;-73
2024/01/25 05:57:30;;;;;;;6.50;1.63;;;;;;;7.73;82.24;101329.50;4997824;28;20676;-73
2024/01/25 05:59:57;;;;;;;12.57;2.20;;;;;;;7.70;81.49;101330.06;5003119;28;20194;-73
2024/01/25 06:02:23;;;;;;;6.83;1.63;;;;;;;7.71;83.47;101321.88;4995646;28;20229;-73
2024/01/25 06:04:51;;;;;;;12.80;3.40;;;;;;;7.72;83.80;101339.22;4993505;28;20222;-73
2024/01/25 06:07:17;;;;;;;10.90;2.63;;;;;;;7.71;84.71;101331.66;5000368;28;20200;-73
2024/01/25 06:09:43;;;;;;;9.23;1.80;;;;;;;7.67;85.46;101352.44;5000299;28;20205;-73
2024/01/25 06:12:10;;;;;;;8.37;1.97;;;;;;;7.68;81.70;101345.34;5014255;28;20684;-73
2024/01/25 06:14:36;;;;;;;8.83;1.90;;;;;;;7.68;81.44;101361.13;4998642;28;20202;-73
2024/01/25 06:17:03;;;;;;;6.63;1.90;;;;;;;7.69;82.23;101347.69;4998551;28;20798;-73
2024/01/25 06:19:29;;;;;;;8.87;1.50;;;;;;;7.69;81.11;101365.31;5000114;28;20627;-73
2024/01/25 06:21:57;;;;;;;8.03;1.87;;;;;;;7.72;80.89;101362.13;4998486;28;20225;-73
2024/01/25 06:24:23;;;;;;;11.70;2.00;;;;;;;7.70;79.99;101356.34;5000736;28;20228;-73
2024/01/25 06:26:49;;;;;;;11.03;2.50;;;;;;;7.69;83.42;101371.34;4998447;28;20241;-73
2024/01/25 06:29:16;;;;;;;4.87;1.50;;;;;;;7.69;80.36;101381.88;5001999;28;20206;-73
2024/01/25 06:31:43;;;;;;;7.40;2.17;;;;;;;7.67;80.09;101381.34;4999738;28;20207;-73
2024/01/25 06:34:10;;;;;;;12.03;2.50;;;;;;;7.70;78.80;101386.06;5000520;28;20222;-73
2024/01/25 06:36:36;;;;;;;8.13;1.40;;;;;;;7.71;81.96;101392.88;5000855;28;20733;-73
2024/01/25 06:39:05;;;;;;;11.60;1.53;;;;;;;7.71;80.65;101398.13;5000186;28;20214;-73
2024/01/25 06:41:32;;;;;;;9.43;2.03;;;;;;;7.70;83.21;101393.16;5012978;28;20218;-73
2024/01/25 06:43:58;;;;;;;11.70;2.33;;;;;;;7.69;78.71;101394.22;4998960;28;20207;-74
2024/01/25 06:46:24;;;;;;;13.17;2.47;;;;;;;7.71;79.90;101403.38;4999747;28;20221;-73
2024/01/25 06:48:51;;;;;;;5.63;1.43;;;;;;;7.70;80.09;101401.81;5001430;28;20573;-73
2024/01/25 06:51:18;;;;;;;9.20;2.13;;;;;;;7.71;78.33;101410.50;5002049;28;20903;-73
2024/01/25 06:53:44;;;;;;;7.47;1.70;;;;;;;7.70;83.56;101411.53;5002440;28;20203;-73
2024/01/25 06:56:12;;;;;;;13.23;2.10;;;;;;;7.70;81.21;101424.69;4998682;28;20236;-74
2024/01/25 06:58:38;;;;;;;3.83;1.57;;;;;;;7.67;82.61;101418.16;5017493;28;20217;-73
2024/01/25 07:01:05;;;;;;;9.63;2.23;;;;;;;7.65;80.68;101422.13;5001283;28;20823;-73
2024/01/25 07:03:31;;;;;;;14.67;2.00;;;;;;;7.64;81.40;101437.13;4998178;28;20281;-73
2024/01/25 07:05:58;;;;;;;9.00;2.23;;;;;;;7.63;80.72;101427.69;5017633;28;20300;-73
2024/01/25 07:08:24;;;;;;;9.90;2.07;;;;;;;7.62;80.28;101441.88;5002677;28;20290;-73
2024/01/25 07:10:51;;;;;;;10.03;1.93;;;;;;;7.61;80.84;101429.81;5000479;28;20200;-73
2024/01/25 07:13:18;;;;;;;8.00;1.83;;;;;;;7.60;81.26;101441.41;5004180;28;20272;-73
2024/01/25 07:15:45;;;;;;;4.87;2.10;;;;;;;7.60;80.88;101424.84;5000407;28;20233;-73
2024/01/25 07:18:11;;;;;;;7.87;1.80;;;;;;;7.58;85.28;101435.66;5003523;28;20191;-73
2024/01/25 07:20:38;;;;;;;11.77;2.20;;;;;;;7.59;82.25;101424.06;5004265;28;20206;-73
2024/01/25 07:23:04;;;;;;;11.57;1.83;;;;;;;7.57;82.24;101439.31;5004077;28;20209;-73
2024/01/25 07:25:31;;;;;;;11.87;2.17;;;;;;;7.57;82.69;101435.94;5000397;28;20217;-73
2024/01/25 07:27:57;;;;;;;8.07;1.90;;;;;;;7.56;84.01;101450.91;5001470;28;20196;-73
2024/01/25 07:30:25;;;;;;;10.90;2.00;;;;;;;7.53;81.96;101448.88;5007342;28;20203;-74
2024/01/25 07:32:51;;;;;;;16.03;2.33;;;;;;;7.54;81.63;101462.75;5000232;28;20195;-73
2024/01/25 07:35:18;;;;;;;10.57;1.63;;;;;;;7.54;81.98;101453.03;5003435;28;20236;-73
2024/01/25 07:37:44;;;;;;;10.67;2.13;;;;;;;7.52;82.36;101455.19;5002574;28;20202;-74
2024/01/25 07:40:12;;;;;;;10.47;1.90;;;;;;;7.51;85.64;101452.84;5004103;28;20203;-73
2024/01/25 07:42:38;;;;;;;7.43;1.93;;;;;;;7.50;82.32;101454.66;5001772;28;20214;-73
2024/01/25 07:45:06;;;;;;;10.83;2.30;;;;;;;7.50;83.80;101464.41;5002155;28;20238;-73
2024/01/25 07:47:33;;;;;;;13.13;2.23;;;;;;;7.51;84.76;101465.97;5001476;28;20294;-73
2024/01/25 07:50:00;;;;;;;10.87;2.37;;;;;;;7.51;82.66;101472.00;5001428;28;20567;-73
2024/01/25 07:52:27;;;;;;;10.70;2.60;;;;;;;7.50;82.26;101478.31;5004016;28;20204;-73
2024/01/25 07:54:54;;;;;;;8.23;1.90;;;;;;;7.51;84.86;101477.25;5000745;28;20215;-73
2024/01/25 07:57:20;;;;;;;9.43;2.33;;;;;;;7.50;83.37;101486.22;5001552;28;20645;-73
2024/01/25 07:59:46;;;;;;;7.33;2.30;;;;;;;7.52;83.05;101483.31;5001355;28;20207;-73
2024/01/25 08:02:13;;;;;;;8.20;1.80;;;;;;;7.52;85.86;101475.41;5004283;28;20209;-73
2024/01/25 08:04:40;;;;;;;10.97;2.03;;;;;;;7.53;84.54;101488.28;5001395;28;20217;-73
2024/01/25 08:07:07;;;;;;;10.77;2.50;;;;;;;7.53;84.28;101483.03;5000909;28;20197;-73
2024/01/25 08:09:33;;;;;;;4.03;1.60;;;;;;;7.51;81.71;101477.25;5001218;28;20204;-73
2024/01/25 08:12:00;;;;;;;9.33;2.10;;;;;;;7.50;82.60;101478.31;5002289;28;20270;-73
2024/01/25 08:14:26;;;;;;;10.10;2.87;;;;;;;7.51;82.87;101469.38;5002968;28;20293;-74
2024/01/25 08:16:52;;;;;;;6.13;1.77;;;;;;;7.54;84.40;101473.28;4997705;28;20197;-73
2024/01/25 08:19:19;;;;;;;9.83;2.23;;;;;;;7.55;85.19;101480.09;5004497;28;20271;-73
2024/01/25 08:21:46;;;;;;;12.83;2.27;;;;;;;7.54;83.00;101474.06;5003917;28;20249;-74
2024/01/25 08:24:13;;;;;;;13.70;3.13;;;;;;;7.55;83.09;101474.84;5010123;28;20201;-73
2024/01/25 08:26:39;;;;;;;8.80;1.90;;;;;;;7.57;83.22;101485.88;5006285;28;20226;-73
2024/01/25 08:29:05;;;;;;;11.10;2.57;;;;;;;7.57;85.34;101489.25;5011294;28;20205;-73
2024/01/25 08:31:32;;;;;;;7.90;1.80;;;;;;;7.59;83.96;101487.16;5005800;28;20202;-73
2024/01/25 08:33:58;;;;;;;7.27;3.07;;;;;;;7.61;83.17;101489.50;5007112;28;20205;-73
2024/01/25 08:36:25;;;;;;;10.27;2.20;;;;;;;7.62;83.79;101501.56;5004509;28;20212;-73
2024/01/25 08:38:53;;;;;;;15.63;3.37;;;;;;;7.61;83.58;101498.16;5008659;28;20239;-72
2024/01/25 08:41:19;;;;;;;15.43;6.27;;;;;;;7.64;85.55;101499.44;5006630;28;20210;-73
2024/01/25 08:43:45;;;;;;;15.00;2.70;;;;;;;7.63;83.83;101503.91;5006970;28;20220;-73
2024/01/25 08:46:14;;;;;;;9.27;2.10;;;;;;;7.66;85.07;101507.84;5020301;28;20841;-73
2024/01/25 08:48:40;;;;;;;9.03;2.47;;;;;;;7.66;83.46;101503.34;5005941;28;20196;-73
2024/01/25 08:51:07;;;;;;;12.43;2.23;;;;;;;7.67;83.95;101509.38;5008459;28;20205;-73
2024/01/25 08:53:33;;;;;;;9.43;2.00;;;;;;;7.69;83.59;101521.19;5010215;28;20206;-73
2024/01/25 08:56:01;;;;;;;8.80;2.10;;;;;;;7.69;84.91;101517.75;5004683;28;20229;-73
2024/01/25 08:58:27;;;;;;;14.97;2.07;;;;;;;7.71;84.64;101518.28;5007563;28;20273;-73
2024/01/25 09:00:54;;;;;;;11.17;2.07;;;;;;;7.72;84.14;101519.84;5005652;28;20574;-73
2024/01/25 09:03:20;;;;;;;10.70;2.33;;;;;;;7.73;86.27;101519.56;5008593;28;20212;-73
2024/01/25 09:05:46;;;;;;;14.07;2.30;;;;;;;7.74;85.48;101525.59;5007237;28;20230;-73
2024/01/25 09:08:13;;;;;;;9.40;2.13;;;;;;;7.75;83.20;101535.81;5006210;28;20200;-73
2024/01/25 09:10:42;;;;;;;8.30;2.10;;;;;;;7.77;84.68;101538.19;5004240;28;20211;-73
2024/01/25 09:13:09;;;;;;;9.13;2.00;;;;;;;7.80;86.32;101532.34;5007343;28;20273;-73
2024/01/25 09:15:36;;;;;;;11.27;2.07;;;;;;;7.79;83.60;101536.81;5007482;28;20298;-73
2024/01/25 09:18:02;;;;;;;7.17;1.97;;;;;;;7.82;83.71;101546.00;5003115;28;20202;-73
2024/01/25 09:20:29;;;;;;;11.20;4.40;;;;;;;7.82;86.97;101546.75;5006468;28;20230;-73
2024/01/25 09:22:55;;;;;;;9.07;2.50;;;;;;;7.83;84.29;101550.94;5003000;28;20698;-73
2024/01/25 09:25:22;;;;;;;6.43;2.00;;;;;;;7.82;83.90;101557.28;5006325;28;20296;-73
2024/01/25 09:27:48;;;;;;;10.53;3.23;;;;;;;7.84;84.51;101557.78;5004572;28;20216;-73
2024/01/25 09:30:16;;;;;;;11.53;3.07;;;;;;;7.84;84.60;101555.16;5003967;28;20677;-73
2024/01/25 09:32:43;;;;;;;19.17;6.20;;;;;;;7.85;85.21;101566.44;5003925;28;20236;-73
2024/01/25 09:35:09;;;;;;;25.73;9.87;;;;;;;7.87;84.33;101566.97;5006411;28;20215;-73
2024/01/25 09:37:35;;;;;;;10.47;2.47;;;;;;;7.86;85.65;101557.50;5004507;28;20203;-73
2024/01/25 09:40:03;;;;;;;6.20;2.63;;;;;;;7.87;83.87;101570.34;5002973;28;20199;-73
2024/01/25 09:42:31;;;;;;;9.77;2.77;;;;;;;7.89;83.47;101559.56;5006270;28;20774;-73
2024/01/25 09:44:57;;;;;;;9.83;3.17;;;;;;;7.90;83.69;101564.53;5001952;28;20225;-73
2024/01/25 09:47:25;;;;;;;19.40;3.17;;;;;;;7.93;83.78;101557.94;5003357;28;20210;-73
2024/01/25 09:49:51;;;;;;;11.17;2.80;;;;;;;7.94;84.35;101556.88;5002825;28;20199;-73
2024/01/25 09:52:24;;;;;;;13.47;2.50;;;;;;;7.96;84.90;101562.63;5005246;28;20205;-73
2024/01/25 09:54:51;;;;;;;8.20;2.40;;;;;;;7.99;84.76;101564.69;5004520;28;20941;-74
2024/01/25 09:57:26;;;;;;;11.27;2.37;;;;;;;8.01;86.30;101563.34;5004418;28;20203;-73
2024/01/25 09:59:53;;;;;;;7.47;2.43;;;;;;;8.02;86.24;101572.78;5005711;28;20687;-73
2024/01/25 10:02:20;;;;;;;11.00;2.30;;;;;;;8.03;83.93;101576.97;5002838;28;20207;-73
2024/01/25 10:04:50;;;;;;;14.87;2.80;;;;;;;8.05;84.76;101571.44;5000579;28;20222;-73
2024/01/25 10:07:17;;;;;;;11.00;1.73;;;;;;;8.07;83.66;101570.09;5003315;28;20223;-73
2024/01/25 10:09:43;;;;;;;7.63;2.47;;;;;;;8.11;83.41;101568.47;5003785;28;20968;-73
2024/01/25 10:12:10;;;;;;;9.63;2.70;;;;;;;8.13;84.02;101570.81;5001771;28;20200;-73
2024/01/25 10:14:36;;;;;;;12.13;3.83;;;;;;;8.12;84.33;101569.25;5005049;28;20706;-73
2024/01/25 10:17:03;;;;;;;11.77;3.10;;;;;;;8.14;83.47;101575.00;5005511;28;20872;-73
2024/01/25 10:19:29;;;;;;;9.83;2.53;;;;;;;8.14;83.62;101586.28;4999744;28;20231;-73
2024/01/25 10:21:58;;;;;;;10.07;2.67;;;;;;;8.15;83.12;101569.47;5002105;28;20279;-73
2024/01/25 10:24:24;;;;;;;12.53;2.53;;;;;;;8.17;83.66;101585.75;5004142;28;20205;-73
2024/01/25 10:26:50;;;;;;;7.93;2.10;;;;;;;8.20;84.27;101592.31;5001378;28;20201;-73
2024/01/25 10:29:17;;;;;;;8.87;2.27;;;;;;;8.22;84.00;101598.84;5005008;28;20855;-73
2024/01/25 10:31:44;;;;;;;8.77;2.27;;;;;;;8.23;83.10;101608.31;5003596;28;20226;-73
2024/01/25 10:34:14;;;;;;;16.20;2.10;;;;;;;8.27;86.78;101603.25;5002642;28;20247;-73
2024/01/25 10:36:41;;;;;;;10.03;2.20;;;;;;;8.27;82.97;101608.50;5000092;28;20239;-74
2024/01/25 10:39:09;;;;;;;9.10;1.87;;;;;;;8.29;84.81;101609.03;5003403;28;20203;-73
2024/01/25 10:41:36;;;;;;;8.83;1.80;;;;;;;8.31;85.33;101605.03;5002701;28;20382;-73
2024/01/25 10:44:03;;;;;;;10.60;2.20;;;;;;;8.33;82.45;101610.03;5004265;28;20223;-71
2024/01/25 10:46:30;;;;;;;8.67;2.27;;;;;;;8.34;83.11;101609.72;5005547;28;20791;-73
2024/01/25 10:48:58;;;;;;;9.53;1.83;;;;;;;8.33;81.70;101600.25;5004571;28;20200;-74
2024/01/25 10:51:25;;;;;;;6.83;1.93;;;;;;;8.34;82.93;101608.97;5002094;28;20575;-74
2024/01/25 10:53:53;;;;;;;8.03;1.80;;;;;;;8.34;82.12;101604.47;5004848;28;20200;-73
2024/01/25 10:56:21;;;;;;;7.77;1.90;;;;;;;8.39;86.50;101614.16;5003938;28;20230;-74
2024/01/25 10:58:48;;;;;;;10.50;2.30;;;;;;;8.41;84.47;101614.63;5019899;28;20669;-74
2024/01/25 11:01:17;;;;;;;10.70;2.47;;;;;;;8.40;83.40;101618.34;5004918;28;20189;-74
2024/01/25 11:03:47;;;;;;;10.87;2.30;;;;;;;8.42;84.99;101606.47;5003350;28;21045;-74
2024/01/25 11:06:14;;;;;;;8.57;1.73;;;;;;;8.38;83.37;101607.31;5004034;28;20204;-74
2024/01/25 11:08:41;;;;;;;9.43;3.03;;;;;;;8.40;84.76;101613.88;5004239;28;20652;-74
2024/01/25 11:11:10;;;;;;;18.60;3.03;;;;;;;8.41;83.74;101604.91;5004537;28;20807;-74
2024/01/25 11:13:40;;;;;;;10.93;2.33;;;;;;;8.42;83.17;101601.19;5002333;28;20224;-73
2024/01/25 11:16:17;;;;;;;11.87;2.00;;;;;;;8.42;82.67;101611.72;5002533;28;20275;-74
2024/01/25 11:18:50;;;;;;;11.83;3.90;;;;;;;8.45;82.21;101605.88;5004299;28;20211;-74
2024/01/25 11:21:27;;;;;;;8.37;2.83;;;;;;;8.49;82.10;101614.00;5002365;28;20245;-74
2024/01/25 11:24:03;;;;;;;9.03;2.30;;;;;;;8.51;83.11;101603.97;5006242;28;20238;-73
2024/01/25 11:26:32;;;;;;;9.57;2.07;;;;;;;8.49;81.48;101614.75;4998212;28;20314;-73